sensor_id;sensor_type;location;lat;lon;timestamp;P1;durP1;ratioP1;P2;durP2;ratioP2
12792;SDS011;6460;42.684;23.260;2023-01-30T06:40:07;34.00;;;17.80;;
12792;SDS011;6460;42.684;23.260;2023-01-30T06:42:35;31.00;;;17.10;;
12792;SDS011;6460;42.684;23.260;2023-01-30T06:45:03;29.57;;;17.33;;
12792;SDS011;6460;42.684;23.260;2023-01-30T06:47:30;33.87;;;17.27;;
12792;SDS011;6460;42.684;23.260;2023-01-30T06:49:58;29.50;;;15.67;;
12792;SDS011;6460;42.684;23.260;2023-01-30T06:52:25;32.73;;;16.30;;
12792;SDS011;6460;42.684;23.260;2023-01-30T06:54:52;29.63;;;13.90;;
12792;SDS011;6460;42.684;23.260;2023-01-30T06:57:21;27.83;;;14.00;;
12792;SDS011;6460;42.684;23.260;2023-01-30T06:59:48;33.20;;;16.97;;
12792;SDS011;6460;42.684;23.260;2023-01-30T07:02:15;28.30;;;15.30;;
12792;SDS011;6460;42.684;23.260;2023-01-30T07:04:42;30.07;;;15.43;;
12792;SDS011;6460;42.684;23.260;2023-01-30T07:07:09;31.20;;;17.03;;
12792;SDS011;6460;42.684;23.260;2023-01-30T07:09:36;27.53;;;15.20;;
12792;SDS011;6460;42.684;23.260;2023-01-30T07:12:03;29.27;;;15.77;;
12792;SDS011;6460;42.684;23.260;2023-01-30T07:14:31;27.77;;;15.47;;
12792;SDS011;6460;42.684;23.260;2023-01-30T07:16:58;39.23;;;22.27;;
12792;SDS011;6460;42.684;23.260;2023-01-30T07:19:25;28.53;;;14.57;;
12792;SDS011;6460;42.684;23.260;2023-01-30T07:21:52;24.17;;;13.77;;
12792;SDS011;6460;42.684;23.260;2023-01-30T07:24:19;29.57;;;15.37;;
12792;SDS011;6460;42.684;23.260;2023-01-30T07:26:46;28.33;;;14.60;;
12792;SDS011;6460;42.684;23.260;2023-01-30T07:29:13;26.70;;;13.67;;
12792;SDS011;6460;42.684;23.260;2023-01-30T07:31:41;27.57;;;15.40;;
12792;SDS011;6460;42.684;23.260;2023-01-30T07:34:08;39.43;;;16.57;;
12792;SDS011;6460;42.684;23.260;2023-01-30T07:36:35;28.07;;;14.10;;
12792;SDS011;6460;42.684;23.260;2023-01-30T07:39:02;27.53;;;14.90;;
12792;SDS011;6460;42.684;23.260;2023-01-30T07:41:29;23.37;;;13.80;;
12792;SDS011;6460;42.684;23.260;2023-01-30T07:43:56;26.43;;;14.67;;
12792;SDS011;6460;42.684;23.260;2023-01-30T07:46:22;27.67;;;14.77;;
12792;SDS011;6460;42.684;23.260;2023-01-30T07:48:51;27.03;;;15.73;;
12792;SDS011;6460;42.684;23.260;2023-01-30T07:51:18;27.53;;;14.40;;
12792;SDS011;6460;42.684;23.260;2023-01-30T07:53:47;23.93;;;13.13;;
12792;SDS011;6460;42.684;23.260;2023-01-30T07:56:15;26.57;;;13.97;;
12792;SDS011;6460;42.684;23.260;2023-01-30T07:58:43;20.93;;;12.43;;
12792;SDS011;6460;42.684;23.260;2023-01-30T08:01:10;21.57;;;12.53;;
12792;SDS011;6460;42.684;23.260;2023-01-30T08:03:37;32.87;;;17.17;;
12792;SDS011;6460;42.684;23.260;2023-01-30T08:06:05;29.47;;;16.40;;
12792;SDS011;6460;42.684;23.260;2023-01-30T08:08:32;26.97;;;14.53;;
12792;SDS011;6460;42.684;23.260;2023-01-30T08:10:59;24.60;;;14.63;;
12792;SDS011;6460;42.684;23.260;2023-01-30T08:13:26;25.43;;;12.77;;
12792;SDS011;6460;42.684;23.260;2023-01-30T08:15:53;24.80;;;13.57;;
12792;SDS011;6460;42.684;23.260;2023-01-30T08:18:20;23.87;;;11.70;;
12792;SDS011;6460;42.684;23.260;2023-01-30T08:20:47;23.50;;;13.40;;
12792;SDS011;6460;42.684;23.260;2023-01-30T08:23:16;22.60;;;12.97;;
12792;SDS011;6460;42.684;23.260;2023-01-30T08:25:43;21.03;;;12.20;;
12792;SDS011;6460;42.684;23.260;2023-01-30T08:28:10;22.03;;;11.13;;
12792;SDS011;6460;42.684;23.260;2023-01-30T08:30:37;20.73;;;12.37;;
12792;SDS011;6460;42.684;23.260;2023-01-30T08:33:06;21.77;;;12.13;;
12792;SDS011;6460;42.684;23.260;2023-01-30T08:35:33;20.53;;;11.07;;
12792;SDS011;6460;42.684;23.260;2023-01-30T08:38:00;20.17;;;11.47;;
12792;SDS011;6460;42.684;23.260;2023-01-30T08:40:29;20.37;;;11.63;;
12792;SDS011;6460;42.684;23.260;2023-01-30T08:42:56;18.90;;;11.20;;
12792;SDS011;6460;42.684;23.260;2023-01-30T08:45:23;21.83;;;11.63;;
12792;SDS011;6460;42.684;23.260;2023-01-30T08:47:49;19.00;;;10.90;;
12792;SDS011;6460;42.684;23.260;2023-01-30T08:50:16;18.33;;;10.33;;
12792;SDS011;6460;42.684;23.260;2023-01-30T08:52:43;20.90;;;11.40;;
12792;SDS011;6460;42.684;23.260;2023-01-30T08:55:10;16.77;;;9.00;;
12792;SDS011;6460;42.684;23.260;2023-01-30T08:57:39;18.27;;;10.50;;
12792;SDS011;6460;42.684;23.260;2023-01-30T09:00:06;16.93;;;9.57;;
12792;SDS011;6460;42.684;23.260;2023-01-30T09:02:34;16.87;;;9.40;;
12792;SDS011;6460;42.684;23.260;2023-01-30T09:05:01;16.80;;;9.67;;
12792;SDS011;6460;42.684;23.260;2023-01-30T09:07:29;15.97;;;9.40;;
12792;SDS011;6460;42.684;23.260;2023-01-30T09:09:57;17.13;;;10.63;;
12792;SDS011;6460;42.684;23.260;2023-01-30T09:12:24;19.27;;;12.20;;
12792;SDS011;6460;42.684;23.260;2023-01-30T09:14:54;31.63;;;12.67;;
12792;SDS011;6460;42.684;23.260;2023-01-30T09:17:22;20.90;;;11.80;;
12792;SDS011;6460;42.684;23.260;2023-01-30T09:19:50;17.30;;;9.87;;
12792;SDS011;6460;42.684;23.260;2023-01-30T09:22:17;14.67;;;8.77;;
12792;SDS011;6460;42.684;23.260;2023-01-30T09:24:44;16.33;;;9.60;;
12792;SDS011;6460;42.684;23.260;2023-01-30T09:27:10;17.40;;;10.57;;
12792;SDS011;6460;42.684;23.260;2023-01-30T09:29:37;27.07;;;16.03;;
12792;SDS011;6460;42.684;23.260;2023-01-30T09:32:06;22.10;;;13.27;;
12792;SDS011;6460;42.684;23.260;2023-01-30T09:34:33;17.57;;;9.07;;
12792;SDS011;6460;42.684;23.260;2023-01-30T09:37:00;15.90;;;9.80;;
12792;SDS011;6460;42.684;23.260;2023-01-30T09:39:28;16.03;;;9.10;;
12792;SDS011;6460;42.684;23.260;2023-01-30T09:41:59;14.87;;;9.20;;
12792;SDS011;6460;42.684;23.260;2023-01-30T09:47:41;21.23;;;12.57;;
12792;SDS011;6460;42.684;23.260;2023-01-30T09:50:22;15.23;;;9.83;;
12792;SDS011;6460;42.684;23.260;2023-01-30T09:53:05;18.23;;;10.60;;
12792;SDS011;6460;42.684;23.260;2023-01-30T09:55:40;17.33;;;10.03;;
12792;SDS011;6460;42.684;23.260;2023-01-30T09:58:07;18.07;;;9.47;;
12792;SDS011;6460;42.684;23.260;2023-01-30T10:00:42;18.93;;;11.70;;
12792;SDS011;6460;42.684;23.260;2023-01-30T10:03:13;16.63;;;10.63;;
12792;SDS011;6460;42.684;23.260;2023-01-30T10:05:44;18.57;;;10.57;;
12792;SDS011;6460;42.684;23.260;2023-01-30T10:08:22;17.90;;;10.00;;
12792;SDS011;6460;42.684;23.260;2023-01-30T10:11:02;20.10;;;11.63;;
12792;SDS011;6460;42.684;23.260;2023-01-30T10:13:40;24.17;;;14.30;;
12792;SDS011;6460;42.684;23.260;2023-01-30T10:16:27;15.37;;;8.33;;
12792;SDS011;6460;42.684;23.260;2023-01-30T10:19:08;17.23;;;10.57;;
12792;SDS011;6460;42.684;23.260;2023-01-30T10:21:58;16.70;;;8.47;;
12792;SDS011;6460;42.684;23.260;2023-01-30T10:24:34;19.67;;;11.80;;
12792;SDS011;6460;42.684;23.260;2023-01-30T10:27:10;21.63;;;11.83;;
12792;SDS011;6460;42.684;23.260;2023-01-30T10:29:42;21.63;;;11.87;;
12792;SDS011;6460;42.684;23.260;2023-01-30T10:32:14;19.93;;;10.73;;
12792;SDS011;6460;42.684;23.260;2023-01-30T10:34:46;21.30;;;10.60;;
12792;SDS011;6460;42.684;23.260;2023-01-30T10:37:18;22.53;;;10.77;;
12792;SDS011;6460;42.684;23.260;2023-01-30T10:39:50;18.53;;;10.37;;
12792;SDS011;6460;42.684;23.260;2023-01-30T10:42:26;19.53;;;11.07;;
12792;SDS011;6460;42.684;23.260;2023-01-30T10:44:59;18.03;;;9.83;;
12792;SDS011;6460;42.684;23.260;2023-01-30T10:47:32;24.63;;;13.23;;
12792;SDS011;6460;42.684;23.260;2023-01-30T10:50:17;20.87;;;11.73;;
12792;SDS011;6460;42.684;23.260;2023-01-30T10:52:49;17.00;;;10.57;;
12792;SDS011;6460;42.684;23.260;2023-01-30T10:55:28;17.30;;;10.27;;
12792;SDS011;6460;42.684;23.260;2023-01-30T10:58:00;18.43;;;9.73;;
12792;SDS011;6460;42.684;23.260;2023-01-30T11:00:33;18.47;;;10.10;;
12792;SDS011;6460;42.684;23.260;2023-01-30T11:03:08;16.33;;;9.43;;
12792;SDS011;6460;42.684;23.260;2023-01-30T11:05:46;20.03;;;11.07;;
12792;SDS011;6460;42.684;23.260;2023-01-30T11:08:19;17.53;;;10.30;;
12792;SDS011;6460;42.684;23.260;2023-01-30T11:10:49;22.80;;;12.53;;
12792;SDS011;6460;42.684;23.260;2023-01-30T11:13:17;25.00;;;13.73;;
12792;SDS011;6460;42.684;23.260;2023-01-30T11:15:47;25.40;;;15.03;;
12792;SDS011;6460;42.684;23.260;2023-01-30T11:18:16;19.63;;;11.27;;
12792;SDS011;6460;42.684;23.260;2023-01-30T11:20:50;23.00;;;11.77;;
12792;SDS011;6460;42.684;23.260;2023-01-30T11:23:29;20.20;;;11.17;;
12792;SDS011;6460;42.684;23.260;2023-01-30T11:25:59;28.23;;;12.87;;
12792;SDS011;6460;42.684;23.260;2023-01-30T11:28:28;21.77;;;11.00;;
12792;SDS011;6460;42.684;23.260;2023-01-30T11:31:02;21.47;;;10.47;;
12792;SDS011;6460;42.684;23.260;2023-01-30T11:33:31;21.80;;;11.13;;
12792;SDS011;6460;42.684;23.260;2023-01-30T11:36:02;21.60;;;10.27;;
12792;SDS011;6460;42.684;23.260;2023-01-30T11:38:31;15.60;;;9.30;;
12792;SDS011;6460;42.684;23.260;2023-01-30T11:41:06;17.47;;;11.20;;
12792;SDS011;6460;42.684;23.260;2023-01-30T11:43:45;31.03;;;12.77;;
12792;SDS011;6460;42.684;23.260;2023-01-30T11:46:14;18.87;;;10.10;;
12792;SDS011;6460;42.684;23.260;2023-01-30T11:48:45;20.10;;;11.40;;
12792;SDS011;6460;42.684;23.260;2023-01-30T11:51:19;18.57;;;9.93;;
12792;SDS011;6460;42.684;23.260;2023-01-30T11:53:48;18.97;;;10.13;;
12792;SDS011;6460;42.684;23.260;2023-01-30T11:56:21;20.03;;;10.73;;
12792;SDS011;6460;42.684;23.260;2023-01-30T11:58:53;20.93;;;11.17;;
12792;SDS011;6460;42.684;23.260;2023-01-30T12:01:24;20.40;;;10.37;;
12792;SDS011;6460;42.684;23.260;2023-01-30T12:03:53;19.20;;;10.73;;
12792;SDS011;6460;42.684;23.260;2023-01-30T12:06:24;18.60;;;11.03;;
12792;SDS011;6460;42.684;23.260;2023-01-30T12:08:55;19.83;;;10.90;;
12792;SDS011;6460;42.684;23.260;2023-01-30T12:11:24;19.47;;;10.27;;
12792;SDS011;6460;42.684;23.260;2023-01-30T12:13:54;19.50;;;11.17;;
12792;SDS011;6460;42.684;23.260;2023-01-30T12:16:35;19.37;;;11.97;;
12792;SDS011;6460;42.684;23.260;2023-01-30T12:19:13;17.83;;;10.67;;
12792;SDS011;6460;42.684;23.260;2023-01-30T12:21:54;14.17;;;7.87;;
12792;SDS011;6460;42.684;23.260;2023-01-30T12:24:28;16.93;;;9.63;;
12792;SDS011;6460;42.684;23.260;2023-01-30T12:27:02;17.00;;;9.03;;
12792;SDS011;6460;42.684;23.260;2023-01-30T12:29:34;16.73;;;9.57;;
12792;SDS011;6460;42.684;23.260;2023-01-30T12:32:08;15.27;;;9.13;;
12792;SDS011;6460;42.684;23.260;2023-01-30T12:34:39;15.27;;;8.97;;
12792;SDS011;6460;42.684;23.260;2023-01-30T12:37:17;24.53;;;12.90;;
12792;SDS011;6460;42.684;23.260;2023-01-30T12:39:57;19.57;;;9.37;;
12792;SDS011;6460;42.684;23.260;2023-01-30T12:42:46;16.63;;;8.77;;
12792;SDS011;6460;42.684;23.260;2023-01-30T12:45:26;16.50;;;8.63;;
12792;SDS011;6460;42.684;23.260;2023-01-30T12:48:03;20.80;;;11.07;;
12792;SDS011;6460;42.684;23.260;2023-01-30T12:50:49;21.90;;;10.63;;
12792;SDS011;6460;42.684;23.260;2023-01-30T12:53:33;17.33;;;11.00;;
12792;SDS011;6460;42.684;23.260;2023-01-30T12:59:05;17.53;;;8.90;;
12792;SDS011;6460;42.684;23.260;2023-01-30T13:01:39;15.47;;;9.80;;
12792;SDS011;6460;42.684;23.260;2023-01-30T13:04:21;12.97;;;7.07;;
12792;SDS011;6460;42.684;23.260;2023-01-30T13:07:01;16.53;;;8.63;;
12792;SDS011;6460;42.684;23.260;2023-01-30T13:09:39;13.87;;;9.20;;
12792;SDS011;6460;42.684;23.260;2023-01-30T13:12:16;17.80;;;9.70;;
12792;SDS011;6460;42.684;23.260;2023-01-30T13:14:50;18.30;;;10.63;;
12792;SDS011;6460;42.684;23.260;2023-01-30T13:17:30;18.93;;;11.40;;
12792;SDS011;6460;42.684;23.260;2023-01-30T13:20:11;18.30;;;10.23;;
12792;SDS011;6460;42.684;23.260;2023-01-30T13:22:45;17.90;;;10.83;;
12792;SDS011;6460;42.684;23.260;2023-01-30T13:25:23;15.43;;;8.47;;
12792;SDS011;6460;42.684;23.260;2023-01-30T13:27:58;22.80;;;12.93;;
12792;SDS011;6460;42.684;23.260;2023-01-30T13:30:28;21.20;;;12.77;;
12792;SDS011;6460;42.684;23.260;2023-01-30T13:32:59;22.10;;;12.20;;
12792;SDS011;6460;42.684;23.260;2023-01-30T13:35:33;24.33;;;14.33;;
12792;SDS011;6460;42.684;23.260;2023-01-30T13:38:02;27.57;;;13.97;;
12792;SDS011;6460;42.684;23.260;2023-01-30T13:40:35;20.43;;;11.40;;
12792;SDS011;6460;42.684;23.260;2023-01-30T13:43:05;24.03;;;13.53;;
12792;SDS011;6460;42.684;23.260;2023-01-30T13:45:39;17.63;;;10.83;;
12792;SDS011;6460;42.684;23.260;2023-01-30T13:48:13;24.27;;;12.80;;
12792;SDS011;6460;42.684;23.260;2023-01-30T13:50:54;22.57;;;11.07;;
12792;SDS011;6460;42.684;23.260;2023-01-30T13:53:31;20.30;;;10.73;;
12792;SDS011;6460;42.684;23.260;2023-01-30T13:56:07;21.50;;;11.83;;
12792;SDS011;6460;42.684;23.260;2023-01-30T13:58:43;24.17;;;12.73;;
12792;SDS011;6460;42.684;23.260;2023-01-30T14:01:15;21.50;;;12.67;;
12792;SDS011;6460;42.684;23.260;2023-01-30T14:03:42;23.27;;;14.00;;
12792;SDS011;6460;42.684;23.260;2023-01-30T14:09:00;24.10;;;12.93;;
12792;SDS011;6460;42.684;23.260;2023-01-30T14:11:34;22.37;;;12.87;;
12792;SDS011;6460;42.684;23.260;2023-01-30T14:14:04;19.17;;;10.83;;
12792;SDS011;6460;42.684;23.260;2023-01-30T14:16:47;21.23;;;11.47;;
12792;SDS011;6460;42.684;23.260;2023-01-30T14:19:20;18.40;;;12.03;;
12792;SDS011;6460;42.684;23.260;2023-01-30T14:21:57;22.73;;;12.20;;
12792;SDS011;6460;42.684;23.260;2023-01-30T14:24:26;24.17;;;12.23;;
12792;SDS011;6460;42.684;23.260;2023-01-30T14:27:04;28.80;;;14.03;;
12792;SDS011;6460;42.684;23.260;2023-01-30T14:29:50;23.73;;;12.13;;
12792;SDS011;6460;42.684;23.260;2023-01-30T14:35:20;23.43;;;12.83;;
12792;SDS011;6460;42.684;23.260;2023-01-30T14:37:49;20.60;;;11.17;;
12792;SDS011;6460;42.684;23.260;2023-01-30T14:40:38;23.20;;;12.40;;
12792;SDS011;6460;42.684;23.260;2023-01-30T14:52:02;23.10;;;12.77;;
12792;SDS011;6460;42.684;23.260;2023-01-30T14:54:30;23.63;;;13.60;;
12792;SDS011;6460;42.684;23.260;2023-01-30T14:57:03;20.67;;;8.97;;
12792;SDS011;6460;42.684;23.260;2023-01-30T14:59:47;25.00;;;13.80;;
12792;SDS011;6460;42.684;23.260;2023-01-30T15:02:18;23.33;;;12.80;;
12792;SDS011;6460;42.684;23.260;2023-01-30T15:04:57;24.83;;;13.83;;
12792;SDS011;6460;42.684;23.260;2023-01-30T15:07:31;26.57;;;14.63;;
12792;SDS011;6460;42.684;23.260;2023-01-30T15:10:05;17.03;;;9.17;;
12792;SDS011;6460;42.684;23.260;2023-01-30T15:12:51;24.23;;;13.80;;
12792;SDS011;6460;42.684;23.260;2023-01-30T15:15:37;26.13;;;14.23;;
12792;SDS011;6460;42.684;23.260;2023-01-30T15:18:20;25.10;;;12.57;;
12792;SDS011;6460;42.684;23.260;2023-01-30T15:24:07;30.20;;;16.97;;
12792;SDS011;6460;42.684;23.260;2023-01-30T15:26:50;33.50;;;18.10;;
12792;SDS011;6460;42.684;23.260;2023-01-30T15:32:42;25.30;;;13.93;;
12792;SDS011;6460;42.684;23.260;2023-01-30T15:35:22;25.70;;;14.47;;
12792;SDS011;6460;42.684;23.260;2023-01-30T15:37:54;22.77;;;13.70;;
12792;SDS011;6460;42.684;23.260;2023-01-30T15:40:22;36.97;;;12.83;;
12792;SDS011;6460;42.684;23.260;2023-01-30T15:42:52;25.63;;;13.47;;
12792;SDS011;6460;42.684;23.260;2023-01-30T15:45:35;25.87;;;13.50;;
12792;SDS011;6460;42.684;23.260;2023-01-30T15:48:16;27.63;;;14.20;;
12792;SDS011;6460;42.684;23.260;2023-01-30T15:50:56;22.30;;;12.17;;
12792;SDS011;6460;42.684;23.260;2023-01-30T15:53:25;27.70;;;14.83;;
12792;SDS011;6460;42.684;23.260;2023-01-30T15:55:55;22.73;;;12.60;;
12792;SDS011;6460;42.684;23.260;2023-01-30T15:58:23;26.53;;;13.17;;
12792;SDS011;6460;42.684;23.260;2023-01-30T16:00:51;27.90;;;14.57;;
12792;SDS011;6460;42.684;23.260;2023-01-30T16:03:22;24.07;;;12.53;;
12792;SDS011;6460;42.684;23.260;2023-01-30T16:05:51;24.10;;;13.03;;
12792;SDS011;6460;42.684;23.260;2023-01-30T16:08:21;23.73;;;13.73;;
12792;SDS011;6460;42.684;23.260;2023-01-30T16:10:48;24.50;;;13.33;;
12792;SDS011;6460;42.684;23.260;2023-01-30T16:13:16;22.63;;;13.70;;
12792;SDS011;6460;42.684;23.260;2023-01-30T16:15:45;23.37;;;14.17;;
12792;SDS011;6460;42.684;23.260;2023-01-30T16:18:21;20.93;;;11.20;;
12792;SDS011;6460;42.684;23.260;2023-01-30T16:20:54;26.20;;;13.23;;
12792;SDS011;6460;42.684;23.260;2023-01-30T16:23:26;26.13;;;14.33;;
12792;SDS011;6460;42.684;23.260;2023-01-30T16:25:56;23.47;;;13.67;;
12792;SDS011;6460;42.684;23.260;2023-01-30T16:28:25;24.87;;;14.20;;
12792;SDS011;6460;42.684;23.260;2023-01-30T16:30:56;27.20;;;15.63;;
12792;SDS011;6460;42.684;23.260;2023-01-30T16:33:26;20.43;;;12.53;;
12792;SDS011;6460;42.684;23.260;2023-01-30T16:35:59;28.97;;;15.97;;
12792;SDS011;6460;42.684;23.260;2023-01-30T16:38:33;29.53;;;14.97;;
12792;SDS011;6460;42.684;23.260;2023-01-30T16:41:02;24.23;;;14.00;;
12792;SDS011;6460;42.684;23.260;2023-01-30T16:43:30;25.07;;;14.07;;
12792;SDS011;6460;42.684;23.260;2023-01-30T16:49:02;20.43;;;11.60;;
12792;SDS011;6460;42.684;23.260;2023-01-30T16:51:31;19.10;;;11.40;;
12792;SDS011;6460;42.684;23.260;2023-01-30T16:53:59;27.53;;;12.40;;
12792;SDS011;6460;42.684;23.260;2023-01-30T16:56:29;20.47;;;11.90;;
12792;SDS011;6460;42.684;23.260;2023-01-30T16:59:00;17.13;;;9.63;;
12792;SDS011;6460;42.684;23.260;2023-01-30T17:01:35;22.17;;;11.17;;
12792;SDS011;6460;42.684;23.260;2023-01-30T17:04:06;21.50;;;11.63;;
12792;SDS011;6460;42.684;23.260;2023-01-30T17:06:43;21.83;;;10.37;;
12792;SDS011;6460;42.684;23.260;2023-01-30T17:18:09;21.07;;;11.43;;
12792;SDS011;6460;42.684;23.260;2023-01-30T17:20:39;17.63;;;9.83;;
12792;SDS011;6460;42.684;23.260;2023-01-30T17:23:16;15.40;;;8.07;;
12792;SDS011;6460;42.684;23.260;2023-01-30T17:25:45;19.30;;;10.97;;
12792;SDS011;6460;42.684;23.260;2023-01-30T17:28:15;18.77;;;11.20;;
12792;SDS011;6460;42.684;23.260;2023-01-30T17:30:46;24.87;;;11.67;;
12792;SDS011;6460;42.684;23.260;2023-01-30T17:33:14;24.07;;;13.37;;
12792;SDS011;6460;42.684;23.260;2023-01-30T17:35:42;23.07;;;12.30;;
12792;SDS011;6460;42.684;23.260;2023-01-30T17:38:10;18.97;;;10.97;;
12792;SDS011;6460;42.684;23.260;2023-01-30T17:40:38;21.00;;;11.33;;
12792;SDS011;6460;42.684;23.260;2023-01-30T17:43:05;21.07;;;11.77;;
12792;SDS011;6460;42.684;23.260;2023-01-30T17:45:34;21.13;;;12.33;;
12792;SDS011;6460;42.684;23.260;2023-01-30T17:48:01;22.87;;;12.90;;
12792;SDS011;6460;42.684;23.260;2023-01-30T17:50:28;21.27;;;12.30;;
12792;SDS011;6460;42.684;23.260;2023-01-30T17:52:58;23.00;;;13.17;;
12792;SDS011;6460;42.684;23.260;2023-01-30T17:55:24;21.60;;;12.10;;
12792;SDS011;6460;42.684;23.260;2023-01-30T17:57:51;21.73;;;11.77;;
12792;SDS011;6460;42.684;23.260;2023-01-30T18:00:19;22.77;;;11.97;;
12792;SDS011;6460;42.684;23.260;2023-01-30T18:02:47;25.17;;;12.23;;
12792;SDS011;6460;42.684;23.260;2023-01-30T18:05:14;22.37;;;12.73;;
12792;SDS011;6460;42.684;23.260;2023-01-30T18:07:41;20.50;;;11.17;;
12792;SDS011;6460;42.684;23.260;2023-01-30T18:10:12;22.80;;;13.10;;
12792;SDS011;6460;42.684;23.260;2023-01-30T18:12:41;22.63;;;12.83;;
12792;SDS011;6460;42.684;23.260;2023-01-30T18:15:11;24.63;;;13.57;;
12792;SDS011;6460;42.684;23.260;2023-01-30T18:17:40;23.50;;;13.10;;
12792;SDS011;6460;42.684;23.260;2023-01-30T18:20:08;25.23;;;13.63;;
12792;SDS011;6460;42.684;23.260;2023-01-30T18:22:37;26.77;;;15.13;;
12792;SDS011;6460;42.684;23.260;2023-01-30T18:25:04;28.60;;;16.23;;
12792;SDS011;6460;42.684;23.260;2023-01-30T18:27:33;23.20;;;14.63;;
12792;SDS011;6460;42.684;23.260;2023-01-30T18:29:59;27.47;;;14.97;;
12792;SDS011;6460;42.684;23.260;2023-01-30T18:32:27;29.43;;;14.13;;
12792;SDS011;6460;42.684;23.260;2023-01-30T18:34:54;28.77;;;16.50;;
12792;SDS011;6460;42.684;23.260;2023-01-30T18:37:21;24.50;;;13.80;;
12792;SDS011;6460;42.684;23.260;2023-01-30T18:39:47;27.40;;;14.67;;
12792;SDS011;6460;42.684;23.260;2023-01-30T18:42:14;25.23;;;14.13;;
12792;SDS011;6460;42.684;23.260;2023-01-30T18:44:42;27.87;;;14.17;;
12792;SDS011;6460;42.684;23.260;2023-01-30T18:47:09;24.33;;;13.83;;
12792;SDS011;6460;42.684;23.260;2023-01-30T18:49:36;23.53;;;13.50;;
12792;SDS011;6460;42.684;23.260;2023-01-30T18:52:03;26.27;;;13.67;;
12792;SDS011;6460;42.684;23.260;2023-01-30T18:54:30;20.30;;;11.40;;
12792;SDS011;6460;42.684;23.260;2023-01-30T18:56:57;22.03;;;12.43;;
12792;SDS011;6460;42.684;23.260;2023-01-30T18:59:24;23.13;;;12.83;;
12792;SDS011;6460;42.684;23.260;2023-01-30T19:01:52;22.43;;;11.53;;
12792;SDS011;6460;42.684;23.260;2023-01-30T19:04:19;21.67;;;11.60;;
12792;SDS011;6460;42.684;23.260;2023-01-30T19:06:46;22.20;;;12.10;;
12792;SDS011;6460;42.684;23.260;2023-01-30T19:09:13;20.50;;;11.73;;
12792;SDS011;6460;42.684;23.260;2023-01-30T19:11:42;21.90;;;12.60;;
12792;SDS011;6460;42.684;23.260;2023-01-30T19:14:26;25.77;;;12.33;;
12792;SDS011;6460;42.684;23.260;2023-01-30T19:16:54;21.07;;;11.13;;
12792;SDS011;6460;42.684;23.260;2023-01-30T19:19:21;21.30;;;11.60;;
12792;SDS011;6460;42.684;23.260;2023-01-30T19:21:48;23.53;;;12.73;;
12792;SDS011;6460;42.684;23.260;2023-01-30T19:24:16;18.73;;;11.00;;
12792;SDS011;6460;42.684;23.260;2023-01-30T19:26:43;21.37;;;11.40;;
12792;SDS011;6460;42.684;23.260;2023-01-30T19:29:10;22.83;;;10.90;;
12792;SDS011;6460;42.684;23.260;2023-01-30T19:31:37;22.37;;;11.60;;
12792;SDS011;6460;42.684;23.260;2023-01-30T19:34:06;22.30;;;11.87;;
12792;SDS011;6460;42.684;23.260;2023-01-30T19:36:34;23.67;;;12.03;;
12792;SDS011;6460;42.684;23.260;2023-01-30T19:39:02;25.53;;;13.47;;
12792;SDS011;6460;42.684;23.260;2023-01-30T19:41:31;23.87;;;14.03;;
12792;SDS011;6460;42.684;23.260;2023-01-30T19:44:00;26.10;;;14.47;;
12792;SDS011;6460;42.684;23.260;2023-01-30T19:46:28;25.93;;;14.03;;
12792;SDS011;6460;42.684;23.260;2023-01-30T19:48:55;28.60;;;15.57;;
12792;SDS011;6460;42.684;23.260;2023-01-30T19:51:25;26.47;;;14.90;;
12792;SDS011;6460;42.684;23.260;2023-01-30T19:53:54;22.17;;;14.00;;
12792;SDS011;6460;42.684;23.260;2023-01-30T19:56:23;24.07;;;13.10;;
12792;SDS011;6460;42.684;23.260;2023-01-30T19:58:50;22.67;;;12.63;;
12792;SDS011;6460;42.684;23.260;2023-01-30T20:01:19;24.07;;;13.17;;
12792;SDS011;6460;42.684;23.260;2023-01-30T20:03:47;21.70;;;12.20;;
12792;SDS011;6460;42.684;23.260;2023-01-30T20:06:15;21.97;;;12.57;;
12792;SDS011;6460;42.684;23.260;2023-01-30T20:08:45;25.73;;;13.30;;
12792;SDS011;6460;42.684;23.260;2023-01-30T20:11:15;21.73;;;12.50;;
12792;SDS011;6460;42.684;23.260;2023-01-30T20:13:43;20.57;;;12.13;;
12792;SDS011;6460;42.684;23.260;2023-01-30T20:16:11;22.60;;;12.33;;
12792;SDS011;6460;42.684;23.260;2023-01-30T20:18:39;22.20;;;11.73;;
12792;SDS011;6460;42.684;23.260;2023-01-30T20:21:07;21.20;;;12.00;;
12792;SDS011;6460;42.684;23.260;2023-01-30T20:23:35;19.77;;;11.63;;
12792;SDS011;6460;42.684;23.260;2023-01-30T20:26:05;21.03;;;11.80;;
12792;SDS011;6460;42.684;23.260;2023-01-30T20:28:32;22.63;;;12.77;;
12792;SDS011;6460;42.684;23.260;2023-01-30T20:31:01;35.13;;;20.17;;
12792;SDS011;6460;42.684;23.260;2023-01-30T20:33:50;24.37;;;11.83;;
12792;SDS011;6460;42.684;23.260;2023-01-30T20:36:19;22.13;;;11.37;;
12792;SDS011;6460;42.684;23.260;2023-01-30T20:38:47;20.80;;;12.00;;
12792;SDS011;6460;42.684;23.260;2023-01-30T20:41:17;23.27;;;11.90;;
12792;SDS011;6460;42.684;23.260;2023-01-30T20:43:45;18.63;;;10.93;;
12792;SDS011;6460;42.684;23.260;2023-01-30T20:46:15;21.07;;;11.83;;
12792;SDS011;6460;42.684;23.260;2023-01-30T20:48:43;17.90;;;10.90;;
12792;SDS011;6460;42.684;23.260;2023-01-30T20:51:11;18.73;;;11.13;;
12792;SDS011;6460;42.684;23.260;2023-01-30T20:53:44;21.27;;;11.23;;
12792;SDS011;6460;42.684;23.260;2023-01-30T20:56:12;19.70;;;11.83;;
12792;SDS011;6460;42.684;23.260;2023-01-30T20:58:40;19.53;;;11.67;;
12792;SDS011;6460;42.684;23.260;2023-01-30T21:01:08;20.03;;;11.87;;
12792;SDS011;6460;42.684;23.260;2023-01-30T21:03:36;20.43;;;11.17;;
12792;SDS011;6460;42.684;23.260;2023-01-30T21:06:03;20.20;;;11.77;;
12792;SDS011;6460;42.684;23.260;2023-01-30T21:08:31;20.00;;;11.43;;
12792;SDS011;6460;42.684;23.260;2023-01-30T21:11:02;20.57;;;11.87;;
12792;SDS011;6460;42.684;23.260;2023-01-30T21:13:30;20.07;;;11.27;;
12792;SDS011;6460;42.684;23.260;2023-01-30T21:16:05;17.97;;;10.90;;
